sensor_id;sensor_type;location;lat;lon;timestamp;pressure;altitude;pressure_sealevel;temperature;humidity
36454;BME280;22478;51.740;-1.314;2023-02-23T00:00:28;100291.60;;;-3.08;100.00
36454;BME280;22478;51.740;-1.314;2023-02-23T00:02:56;100299.26;;;-3.51;100.00
36454;BME280;22478;51.740;-1.314;2023-02-23T00:05:24;100293.63;;;-3.13;100.00
36454;BME280;22478;51.740;-1.314;2023-02-23T00:07:51;100297.23;;;-1.99;100.00
36454;BME280;22478;51.740;-1.314;2023-02-23T00:10:20;100301.53;;;-2.91;100.00
36454;BME280;22478;51.740;-1.314;2023-02-23T00:12:48;100298.13;;;-0.78;100.00
36454;BME280;22478;51.740;-1.314;2023-02-23T00:15:15;100308.86;;;-3.11;100.00
36454;BME280;22478;51.740;-1.314;2023-02-23T00:17:43;100311.10;;;-3.43;100.00
36454;BME280;22478;51.740;-1.314;2023-02-23T00:20:11;100305.55;;;-3.19;100.00
36454;BME280;22478;51.740;-1.314;2023-02-23T00:22:39;100305.24;;;-3.79;100.00
36454;BME280;22478;51.740;-1.314;2023-02-23T00:25:08;100311.98;;;-3.06;100.00
36454;BME280;22478;51.740;-1.314;2023-02-23T00:27:36;100310.30;;;-3.53;100.00
36454;BME280;22478;51.740;-1.314;2023-02-23T00:30:04;100303.62;;;-3.07;100.00
36454;BME280;22478;51.740;-1.314;2023-02-23T00:32:32;100314.22;;;-3.43;100.00
36454;BME280;22478;51.740;-1.314;2023-02-23T00:34:59;100307.55;;;-2.22;100.00
36454;BME280;22478;51.740;-1.314;2023-02-23T00:37:26;100306.79;;;-2.92;100.00
36454;BME280;22478;51.740;-1.314;2023-02-23T00:39:55;100313.31;;;-2.99;100.00
36454;BME280;22478;51.740;-1.314;2023-02-23T00:42:22;100320.03;;;-2.88;100.00
36454;BME280;22478;51.740;-1.314;2023-02-23T00:44:49;100323.96;;;-3.82;100.00
36454;BME280;22478;51.740;-1.314;2023-02-23T00:47:16;100322.02;;;-2.59;100.00
36454;BME280;22478;51.740;-1.314;2023-02-23T00:49:43;100319.56;;;-2.30;100.00
36454;BME280;22478;51.740;-1.314;2023-02-23T00:52:11;100328.97;;;-3.56;100.00
36454;BME280;22478;51.740;-1.314;2023-02-23T00:54:38;100323.54;;;-3.13;100.00
36454;BME280;22478;51.740;-1.314;2023-02-23T00:57:05;100332.99;;;-4.06;100.00
36454;BME280;22478;51.740;-1.314;2023-02-23T00:59:32;100338.98;;;-3.58;100.00
36454;BME280;22478;51.740;-1.314;2023-02-23T01:01:59;100332.75;;;-3.23;100.00
36454;BME280;22478;51.740;-1.314;2023-02-23T01:04:26;100327.77;;;-1.69;100.00
36454;BME280;22478;51.740;-1.314;2023-02-23T01:06:54;100328.69;;;-3.29;100.00
36454;BME280;22478;51.740;-1.314;2023-02-23T01:09:21;100327.88;;;-3.58;100.00
36454;BME280;22478;51.740;-1.314;2023-02-23T01:11:48;100330.18;;;-3.29;100.00
36454;BME280;22478;51.740;-1.314;2023-02-23T01:14:16;100323.42;;;-2.82;100.00
36454;BME280;22478;51.740;-1.314;2023-02-23T01:16:44;100329.79;;;-4.08;100.00
36454;BME280;22478;51.740;-1.314;2023-02-23T01:19:11;100323.54;;;-3.50;100.00
36454;BME280;22478;51.740;-1.314;2023-02-23T01:21:40;100336.19;;;-3.18;100.00
36454;BME280;22478;51.740;-1.314;2023-02-23T01:24:09;100332.15;;;-2.94;100.00
36454;BME280;22478;51.740;-1.314;2023-02-23T01:26:38;100337.61;;;-3.45;100.00
36454;BME280;22478;51.740;-1.314;2023-02-23T01:29:09;100333.40;;;-1.80;100.00
36454;BME280;22478;51.740;-1.314;2023-02-23T01:31:38;100331.24;;;-1.72;100.00
36454;BME280;22478;51.740;-1.314;2023-02-23T01:34:06;100331.28;;;-2.02;100.00
36454;BME280;22478;51.740;-1.314;2023-02-23T01:36:34;100334.08;;;-2.45;100.00
36454;BME280;22478;51.740;-1.314;2023-02-23T01:39:03;100339.66;;;-3.25;100.00
36454;BME280;22478;51.740;-1.314;2023-02-23T01:41:30;100344.74;;;-2.68;100.00
36454;BME280;22478;51.740;-1.314;2023-02-23T01:43:59;100339.21;;;-1.64;100.00
36454;BME280;22478;51.740;-1.314;2023-02-23T01:46:30;100342.64;;;-2.91;100.00
36454;BME280;22478;51.740;-1.314;2023-02-23T01:48:58;100348.02;;;-2.84;100.00
36454;BME280;22478;51.740;-1.314;2023-02-23T01:51:28;100347.17;;;-2.49;100.00
36454;BME280;22478;51.740;-1.314;2023-02-23T01:54:00;100344.49;;;-3.08;100.00
36454;BME280;22478;51.740;-1.314;2023-02-23T01:56:33;100349.50;;;-2.66;100.00
36454;BME280;22478;51.740;-1.314;2023-02-23T01:59:05;100345.14;;;-3.08;100.00
36454;BME280;22478;51.740;-1.314;2023-02-23T02:01:34;100349.18;;;-3.07;100.00
36454;BME280;22478;51.740;-1.314;2023-02-23T02:04:02;100350.07;;;-2.90;100.00
36454;BME280;22478;51.740;-1.314;2023-02-23T02:06:30;100356.90;;;-3.30;100.00
36454;BME280;22478;51.740;-1.314;2023-02-23T02:09:01;100349.93;;;-1.80;100.00
36454;BME280;22478;51.740;-1.314;2023-02-23T02:11:29;100348.78;;;-2.22;100.00
36454;BME280;22478;51.740;-1.314;2023-02-23T02:13:58;100343.49;;;-1.78;100.00
36454;BME280;22478;51.740;-1.314;2023-02-23T02:16:41;100347.84;;;-1.79;100.00
36454;BME280;22478;51.740;-1.314;2023-02-23T02:19:36;100350.78;;;-3.12;100.00
36454;BME280;22478;51.740;-1.314;2023-02-23T02:22:22;100354.84;;;-3.35;100.00
36454;BME280;22478;51.740;-1.314;2023-02-23T02:25:35;100350.79;;;-1.97;100.00
36454;BME280;22478;51.740;-1.314;2023-02-23T02:28:23;100354.49;;;-2.23;100.00
36454;BME280;22478;51.740;-1.314;2023-02-23T02:31:13;100350.18;;;-1.73;100.00
36454;BME280;22478;51.740;-1.314;2023-02-23T02:33:59;100349.36;;;-2.69;100.00
36454;BME280;22478;51.740;-1.314;2023-02-23T02:37:03;100357.79;;;-3.53;100.00
36454;BME280;22478;51.740;-1.314;2023-02-23T02:39:42;100357.27;;;-2.57;100.00
36454;BME280;22478;51.740;-1.314;2023-02-23T02:42:22;100353.22;;;-3.43;100.00
36454;BME280;22478;51.740;-1.314;2023-02-23T02:45:00;100352.70;;;-2.11;100.00
36454;BME280;22478;51.740;-1.314;2023-02-23T02:47:33;100350.14;;;-2.05;100.00
36454;BME280;22478;51.740;-1.314;2023-02-23T02:50:07;100345.99;;;-2.01;100.00
36454;BME280;22478;51.740;-1.314;2023-02-23T02:52:39;100349.88;;;-2.13;100.00
36454;BME280;22478;51.740;-1.314;2023-02-23T02:55:12;100345.22;;;-0.83;100.00
36454;BME280;22478;51.740;-1.314;2023-02-23T02:57:41;100351.06;;;-2.05;100.00
36454;BME280;22478;51.740;-1.314;2023-02-23T03:00:16;100359.03;;;-3.74;100.00
36454;BME280;22478;51.740;-1.314;2023-02-23T03:02:44;100364.55;;;-3.72;100.00
36454;BME280;22478;51.740;-1.314;2023-02-23T03:05:13;100358.35;;;-1.92;100.00
36454;BME280;22478;51.740;-1.314;2023-02-23T03:07:47;100359.45;;;-2.01;100.00
36454;BME280;22478;51.740;-1.314;2023-02-23T03:10:24;100365.54;;;-3.41;100.00
36454;BME280;22478;51.740;-1.314;2023-02-23T03:12:58;100363.64;;;-3.21;100.00
36454;BME280;22478;51.740;-1.314;2023-02-23T03:15:37;100356.79;;;-3.31;100.00
36454;BME280;22478;51.740;-1.314;2023-02-23T03:18:19;100363.23;;;-3.42;100.00
36454;BME280;22478;51.740;-1.314;2023-02-23T03:20:53;100361.21;;;-3.65;100.00
36454;BME280;22478;51.740;-1.314;2023-02-23T03:23:25;100365.61;;;-3.90;100.00
36454;BME280;22478;51.740;-1.314;2023-02-23T03:26:00;100367.35;;;-3.07;100.00
36454;BME280;22478;51.740;-1.314;2023-02-23T03:28:31;100365.36;;;-3.14;100.00
36454;BME280;22478;51.740;-1.314;2023-02-23T03:31:06;100363.22;;;-2.72;100.00
36454;BME280;22478;51.740;-1.314;2023-02-23T03:33:43;100371.17;;;-4.20;100.00
36454;BME280;22478;51.740;-1.314;2023-02-23T03:36:17;100363.87;;;-3.71;100.00
36454;BME280;22478;51.740;-1.314;2023-02-23T03:38:49;100363.91;;;-2.27;100.00
36454;BME280;22478;51.740;-1.314;2023-02-23T03:41:19;100368.99;;;-2.78;100.00
36454;BME280;22478;51.740;-1.314;2023-02-23T03:43:52;100370.79;;;-2.84;100.00
36454;BME280;22478;51.740;-1.314;2023-02-23T03:46:23;100369.47;;;-4.04;100.00
36454;BME280;22478;51.740;-1.314;2023-02-23T03:48:53;100377.80;;;-3.55;100.00
36454;BME280;22478;51.740;-1.314;2023-02-23T03:51:23;100368.58;;;-2.72;100.00
36454;BME280;22478;51.740;-1.314;2023-02-23T03:53:56;100371.84;;;-2.88;100.00
36454;BME280;22478;51.740;-1.314;2023-02-23T03:56:26;100377.32;;;-3.13;100.00
36454;BME280;22478;51.740;-1.314;2023-02-23T03:58:58;100386.60;;;-3.75;100.00
36454;BME280;22478;51.740;-1.314;2023-02-23T04:01:27;100385.95;;;-2.76;100.00
36454;BME280;22478;51.740;-1.314;2023-02-23T04:03:57;100388.38;;;-3.21;100.00
36454;BME280;22478;51.740;-1.314;2023-02-23T04:06:30;100388.23;;;-3.66;100.00
36454;BME280;22478;51.740;-1.314;2023-02-23T04:09:01;100386.22;;;-3.24;100.00
36454;BME280;22478;51.740;-1.314;2023-02-23T04:11:36;100390.87;;;-2.92;100.00
36454;BME280;22478;51.740;-1.314;2023-02-23T04:14:09;100382.66;;;-2.66;100.00
36454;BME280;22478;51.740;-1.314;2023-02-23T04:16:38;100396.98;;;-3.59;100.00
36454;BME280;22478;51.740;-1.314;2023-02-23T04:19:07;100398.32;;;-3.57;100.00
36454;BME280;22478;51.740;-1.314;2023-02-23T04:21:33;100391.21;;;-3.10;100.00
36454;BME280;22478;51.740;-1.314;2023-02-23T04:24:01;100392.58;;;-3.33;100.00
36454;BME280;22478;51.740;-1.314;2023-02-23T04:26:28;100401.63;;;-3.27;100.00
36454;BME280;22478;51.740;-1.314;2023-02-23T04:28:55;100400.94;;;-3.14;100.00
36454;BME280;22478;51.740;-1.314;2023-02-23T04:31:22;100396.61;;;-3.33;100.00
36454;BME280;22478;51.740;-1.314;2023-02-23T04:33:49;100405.27;;;-3.95;100.00
36454;BME280;22478;51.740;-1.314;2023-02-23T04:36:17;100409.90;;;-3.44;100.00
36454;BME280;22478;51.740;-1.314;2023-02-23T04:38:44;100406.26;;;-2.89;100.00
36454;BME280;22478;51.740;-1.314;2023-02-23T04:41:11;100414.07;;;-2.87;100.00
36454;BME280;22478;51.740;-1.314;2023-02-23T04:43:38;100420.83;;;-3.59;100.00
36454;BME280;22478;51.740;-1.314;2023-02-23T04:46:06;100418.94;;;-2.75;100.00
36454;BME280;22478;51.740;-1.314;2023-02-23T04:48:33;100419.91;;;-2.65;100.00
36454;BME280;22478;51.740;-1.314;2023-02-23T04:51:01;100415.59;;;-2.92;100.00
36454;BME280;22478;51.740;-1.314;2023-02-23T04:53:28;100422.97;;;-2.86;100.00
36454;BME280;22478;51.740;-1.314;2023-02-23T04:55:56;100423.16;;;-3.17;100.00
36454;BME280;22478;51.740;-1.314;2023-02-23T04:58:23;100429.60;;;-3.56;100.00
36454;BME280;22478;51.740;-1.314;2023-02-23T05:00:51;100428.39;;;-4.04;100.00
36454;BME280;22478;51.740;-1.314;2023-02-23T05:03:19;100424.03;;;-3.02;100.00
36454;BME280;22478;51.740;-1.314;2023-02-23T05:05:46;100422.85;;;-3.37;100.00
36454;BME280;22478;51.740;-1.314;2023-02-23T05:08:14;100424.77;;;-3.75;100.00
36454;BME280;22478;51.740;-1.314;2023-02-23T05:10:41;100429.71;;;-3.36;100.00
36454;BME280;22478;51.740;-1.314;2023-02-23T05:13:08;100429.28;;;-2.81;100.00
36454;BME280;22478;51.740;-1.314;2023-02-23T05:15:36;100431.62;;;-3.50;100.00
36454;BME280;22478;51.740;-1.314;2023-02-23T05:18:03;100435.38;;;-3.15;100.00
36454;BME280;22478;51.740;-1.314;2023-02-23T05:20:30;100436.04;;;-3.77;100.00
36454;BME280;22478;51.740;-1.314;2023-02-23T05:22:57;100429.73;;;-3.06;100.00
36454;BME280;22478;51.740;-1.314;2023-02-23T05:25:25;100439.83;;;-3.51;100.00
36454;BME280;22478;51.740;-1.314;2023-02-23T05:27:52;100448.59;;;-3.50;100.00
36454;BME280;22478;51.740;-1.314;2023-02-23T05:30:20;100447.72;;;-2.97;100.00
36454;BME280;22478;51.740;-1.314;2023-02-23T05:32:47;100453.58;;;-3.42;100.00
36454;BME280;22478;51.740;-1.314;2023-02-23T05:35:14;100451.70;;;-2.93;100.00
36454;BME280;22478;51.740;-1.314;2023-02-23T05:37:41;100457.34;;;-2.99;100.00
36454;BME280;22478;51.740;-1.314;2023-02-23T05:40:10;100452.07;;;-1.28;100.00
36454;BME280;22478;51.740;-1.314;2023-02-23T05:42:37;100457.56;;;-2.84;100.00
36454;BME280;22478;51.740;-1.314;2023-02-23T05:45:05;100457.34;;;-2.92;100.00
36454;BME280;22478;51.740;-1.314;2023-02-23T05:47:33;100461.51;;;-2.68;100.00
36454;BME280;22478;51.740;-1.314;2023-02-23T05:50:00;100459.24;;;-2.16;100.00
36454;BME280;22478;51.740;-1.314;2023-02-23T05:52:27;100468.18;;;-2.96;100.00
36454;BME280;22478;51.740;-1.314;2023-02-23T05:54:54;100475.92;;;-3.54;100.00
36454;BME280;22478;51.740;-1.314;2023-02-23T05:57:22;100475.83;;;-2.08;100.00
36454;BME280;22478;51.740;-1.314;2023-02-23T05:59:49;100487.26;;;-3.17;100.00
36454;BME280;22478;51.740;-1.314;2023-02-23T06:02:17;100491.89;;;-2.32;100.00
36454;BME280;22478;51.740;-1.314;2023-02-23T06:04:44;100492.98;;;-3.82;100.00
36454;BME280;22478;51.740;-1.314;2023-02-23T06:07:12;100501.03;;;-2.23;100.00
36454;BME280;22478;51.740;-1.314;2023-02-23T06:09:39;100493.25;;;-2.59;100.00
36454;BME280;22478;51.740;-1.314;2023-02-23T06:12:06;100492.78;;;-2.62;100.00
36454;BME280;22478;51.740;-1.314;2023-02-23T06:14:33;100498.01;;;-2.78;100.00
36454;BME280;22478;51.740;-1.314;2023-02-23T06:17:01;100494.79;;;-2.70;100.00
36454;BME280;22478;51.740;-1.314;2023-02-23T06:19:28;100493.18;;;-2.14;100.00
36454;BME280;22478;51.740;-1.314;2023-02-23T06:21:55;100497.33;;;-2.03;100.00
36454;BME280;22478;51.740;-1.314;2023-02-23T06:24:22;100511.58;;;-1.40;100.00
36454;BME280;22478;51.740;-1.314;2023-02-23T06:26:50;100513.76;;;-2.37;100.00
36454;BME280;22478;51.740;-1.314;2023-02-23T06:29:17;100535.94;;;-3.69;100.00
36454;BME280;22478;51.740;-1.314;2023-02-23T06:31:44;100536.87;;;-4.15;100.00
36454;BME280;22478;51.740;-1.314;2023-02-23T06:34:11;100550.16;;;-2.71;100.00
36454;BME280;22478;51.740;-1.314;2023-02-23T06:36:39;100543.66;;;-2.23;100.00
36454;BME280;22478;51.740;-1.314;2023-02-23T06:39:06;100555.89;;;-2.52;100.00
36454;BME280;22478;51.740;-1.314;2023-02-23T06:41:33;100562.58;;;-2.84;100.00
36454;BME280;22478;51.740;-1.314;2023-02-23T06:44:01;100563.85;;;-2.39;100.00
36454;BME280;22478;51.740;-1.314;2023-02-23T06:46:29;100568.86;;;-2.84;100.00
36454;BME280;22478;51.740;-1.314;2023-02-23T06:48:56;100576.52;;;-2.90;100.00
36454;BME280;22478;51.740;-1.314;2023-02-23T06:51:24;100580.48;;;-3.21;100.00
36454;BME280;22478;51.740;-1.314;2023-02-23T06:53:51;100579.09;;;-2.72;100.00
36454;BME280;22478;51.740;-1.314;2023-02-23T06:56:19;100579.01;;;-3.38;100.00
36454;BME280;22478;51.740;-1.314;2023-02-23T06:58:47;100588.19;;;-3.18;100.00
36454;BME280;22478;51.740;-1.314;2023-02-23T07:01:14;100577.09;;;-2.84;100.00
36454;BME280;22478;51.740;-1.314;2023-02-23T07:03:41;100575.25;;;-3.26;100.00
36454;BME280;22478;51.740;-1.314;2023-02-23T07:06:09;100583.44;;;-3.16;100.00
36454;BME280;22478;51.740;-1.314;2023-02-23T07:08:37;100588.32;;;-2.60;100.00
36454;BME280;22478;51.740;-1.314;2023-02-23T07:11:06;100591.07;;;-3.41;100.00
36454;BME280;22478;51.740;-1.314;2023-02-23T07:13:34;100595.05;;;-2.87;100.00
36454;BME280;22478;51.740;-1.314;2023-02-23T07:16:01;100588.82;;;-2.33;100.00
36454;BME280;22478;51.740;-1.314;2023-02-23T07:18:28;100598.49;;;-3.48;100.00
36454;BME280;22478;51.740;-1.314;2023-02-23T07:20:55;100601.76;;;-3.26;100.00
36454;BME280;22478;51.740;-1.314;2023-02-23T07:23:23;100591.63;;;-3.15;100.00
36454;BME280;22478;51.740;-1.314;2023-02-23T07:25:52;100597.61;;;-3.17;100.00
36454;BME280;22478;51.740;-1.314;2023-02-23T07:28:20;100597.32;;;-1.82;100.00
36454;BME280;22478;51.740;-1.314;2023-02-23T07:30:47;100599.61;;;-2.75;100.00
36454;BME280;22478;51.740;-1.314;2023-02-23T07:33:14;100606.05;;;-2.78;100.00
36454;BME280;22478;51.740;-1.314;2023-02-23T07:35:42;100615.68;;;-3.88;100.00
36454;BME280;22478;51.740;-1.314;2023-02-23T07:38:09;100614.29;;;-3.20;100.00
36454;BME280;22478;51.740;-1.314;2023-02-23T07:40:37;100620.07;;;-2.71;100.00
36454;BME280;22478;51.740;-1.314;2023-02-23T07:43:04;100618.98;;;-2.75;100.00
36454;BME280;22478;51.740;-1.314;2023-02-23T07:45:32;100622.69;;;-2.25;100.00
36454;BME280;22478;51.740;-1.314;2023-02-23T07:47:59;100631.57;;;-3.48;100.00
36454;BME280;22478;51.740;-1.314;2023-02-23T07:50:26;100631.19;;;-2.62;100.00
36454;BME280;22478;51.740;-1.314;2023-02-23T07:52:54;100635.79;;;-2.40;100.00
36454;BME280;22478;51.740;-1.314;2023-02-23T07:55:21;100635.50;;;-2.75;100.00
36454;BME280;22478;51.740;-1.314;2023-02-23T07:57:48;100636.26;;;-3.06;100.00
36454;BME280;22478;51.740;-1.314;2023-02-23T08:00:15;100648.01;;;-2.83;100.00
36454;BME280;22478;51.740;-1.314;2023-02-23T08:02:43;100644.12;;;-3.32;100.00
36454;BME280;22478;51.740;-1.314;2023-02-23T08:05:11;100655.07;;;-2.51;100.00
36454;BME280;22478;51.740;-1.314;2023-02-23T08:07:39;100650.58;;;-2.20;100.00
36454;BME280;22478;51.740;-1.314;2023-02-23T08:10:07;100661.36;;;-3.42;100.00
36454;BME280;22478;51.740;-1.314;2023-02-23T08:12:35;100661.16;;;-3.02;100.00
36454;BME280;22478;51.740;-1.314;2023-02-23T08:15:02;100658.07;;;-1.66;100.00
36454;BME280;22478;51.740;-1.314;2023-02-23T08:17:29;100665.57;;;-3.02;100.00
36454;BME280;22478;51.740;-1.314;2023-02-23T08:19:57;100661.79;;;-2.99;100.00
36454;BME280;22478;51.740;-1.314;2023-02-23T08:22:24;100660.75;;;-2.81;100.00
36454;BME280;22478;51.740;-1.314;2023-02-23T08:24:51;100656.64;;;-2.17;100.00
36454;BME280;22478;51.740;-1.314;2023-02-23T08:27:19;100661.69;;;-2.71;100.00
36454;BME280;22478;51.740;-1.314;2023-02-23T08:29:46;100665.28;;;-2.67;100.00
36454;BME280;22478;51.740;-1.314;2023-02-23T08:32:14;100669.01;;;-3.28;100.00
36454;BME280;22478;51.740;-1.314;2023-02-23T08:34:42;100667.02;;;-3.07;100.00
36454;BME280;22478;51.740;-1.314;2023-02-23T08:37:10;100675.40;;;-3.62;100.00
36454;BME280;22478;51.740;-1.314;2023-02-23T08:39:37;100667.07;;;-1.33;100.00
36454;BME280;22478;51.740;-1.314;2023-02-23T08:42:05;100671.63;;;-1.66;100.00
36454;BME280;22478;51.740;-1.314;2023-02-23T08:44:32;100663.98;;;-2.43;100.00
36454;BME280;22478;51.740;-1.314;2023-02-23T08:46:59;100675.78;;;-3.59;100.00
36454;BME280;22478;51.740;-1.314;2023-02-23T08:49:26;100678.27;;;-2.22;100.00
36454;BME280;22478;51.740;-1.314;2023-02-23T08:51:53;100678.16;;;-1.72;100.00
36454;BME280;22478;51.740;-1.314;2023-02-23T08:54:21;100676.92;;;-2.41;100.00
36454;BME280;22478;51.740;-1.314;2023-02-23T08:56:48;100673.69;;;-2.57;100.00
36454;BME280;22478;51.740;-1.314;2023-02-23T08:59:15;100670.40;;;-3.32;100.00
36454;BME280;22478;51.740;-1.314;2023-02-23T09:01:42;100670.35;;;-3.59;100.00
36454;BME280;22478;51.740;-1.314;2023-02-23T09:04:10;100679.56;;;-2.54;100.00
36454;BME280;22478;51.740;-1.314;2023-02-23T09:06:37;100675.58;;;-1.69;100.00
36454;BME280;22478;51.740;-1.314;2023-02-23T09:09:04;100686.81;;;-2.83;100.00
36454;BME280;22478;51.740;-1.314;2023-02-23T09:11:32;100687.51;;;-2.58;100.00
36454;BME280;22478;51.740;-1.314;2023-02-23T09:13:59;100684.71;;;-2.77;100.00
36454;BME280;22478;51.740;-1.314;2023-02-23T09:16:26;100692.55;;;-3.08;100.00
36454;BME280;22478;51.740;-1.314;2023-02-23T09:18:54;100698.94;;;-2.07;100.00
36454;BME280;22478;51.740;-1.314;2023-02-23T09:21:22;100708.48;;;-2.43;100.00
36454;BME280;22478;51.740;-1.314;2023-02-23T09:23:50;100706.98;;;-3.47;100.00
36454;BME280;22478;51.740;-1.314;2023-02-23T09:26:18;100715.58;;;-3.01;100.00
36454;BME280;22478;51.740;-1.314;2023-02-23T09:28:46;100711.61;;;-2.74;100.00
36454;BME280;22478;51.740;-1.314;2023-02-23T09:31:16;100709.89;;;-2.72;100.00
36454;BME280;22478;51.740;-1.314;2023-02-23T09:33:43;100705.28;;;-2.85;100.00
36454;BME280;22478;51.740;-1.314;2023-02-23T09:36:12;100698.47;;;-2.59;100.00
36454;BME280;22478;51.740;-1.314;2023-02-23T09:38:40;100706.41;;;-2.48;100.00
36454;BME280;22478;51.740;-1.314;2023-02-23T09:41:30;100701.91;;;-2.87;100.00
36454;BME280;22478;51.740;-1.314;2023-02-23T09:44:04;100708.38;;;-2.55;100.00
36454;BME280;22478;51.740;-1.314;2023-02-23T09:46:38;100704.74;;;-2.57;100.00
36454;BME280;22478;51.740;-1.314;2023-02-23T09:49:13;100701.49;;;-2.61;100.00
36454;BME280;22478;51.740;-1.314;2023-02-23T09:51:47;100709.06;;;-2.77;100.00
36454;BME280;22478;51.740;-1.314;2023-02-23T09:54:17;100710.55;;;-1.97;100.00
36454;BME280;22478;51.740;-1.314;2023-02-23T09:56:46;100715.79;;;-2.82;100.00
36454;BME280;22478;51.740;-1.314;2023-02-23T09:59:14;100706.93;;;-3.43;100.00
36454;BME280;22478;51.740;-1.314;2023-02-23T10:01:51;100718.31;;;-1.69;100.00
36454;BME280;22478;51.740;-1.314;2023-02-23T10:04:23;100724.86;;;-2.15;100.00
36454;BME280;22478;51.740;-1.314;2023-02-23T10:06:57;100724.69;;;-2.11;100.00
36454;BME280;22478;51.740;-1.314;2023-02-23T10:09:31;100729.49;;;-1.74;100.00
36454;BME280;22478;51.740;-1.314;2023-02-23T10:12:09;100729.71;;;-2.61;100.00
36454;BME280;22478;51.740;-1.314;2023-02-23T10:14:57;100750.46;;;-2.85;100.00
36454;BME280;22478;51.740;-1.314;2023-02-23T10:17:34;100738.77;;;-2.43;100.00
36454;BME280;22478;51.740;-1.314;2023-02-23T10:20:15;100743.32;;;-2.96;100.00
36454;BME280;22478;51.740;-1.314;2023-02-23T10:22:45;100739.34;;;-3.30;100.00
36454;BME280;22478;51.740;-1.314;2023-02-23T10:25:18;100742.42;;;-2.41;100.00
36454;BME280;22478;51.740;-1.314;2023-02-23T10:27:48;100743.76;;;-1.99;100.00
36454;BME280;22478;51.740;-1.314;2023-02-23T10:30:20;100742.64;;;-2.85;100.00
36454;BME280;22478;51.740;-1.314;2023-02-23T10:32:52;100742.75;;;-2.43;100.00
36454;BME280;22478;51.740;-1.314;2023-02-23T10:35:22;100743.38;;;-1.26;100.00
36454;BME280;22478;51.740;-1.314;2023-02-23T10:37:50;100740.24;;;-1.18;100.00
36454;BME280;22478;51.740;-1.314;2023-02-23T10:40:21;100750.41;;;-1.71;100.00
36454;BME280;22478;51.740;-1.314;2023-02-23T10:42:49;100752.22;;;-2.36;100.00
36454;BME280;22478;51.740;-1.314;2023-02-23T10:45:19;100756.90;;;-1.09;100.00
36454;BME280;22478;51.740;-1.314;2023-02-23T10:47:51;100758.07;;;-1.49;100.00
36454;BME280;22478;51.740;-1.314;2023-02-23T10:50:19;100760.95;;;-1.85;100.00
36454;BME280;22478;51.740;-1.314;2023-02-23T10:52:48;100756.42;;;-1.17;100.00
36454;BME280;22478;51.740;-1.314;2023-02-23T10:55:22;100751.62;;;-1.45;100.00
36454;BME280;22478;51.740;-1.314;2023-02-23T10:57:51;100751.81;;;-1.84;100.00
36454;BME280;22478;51.740;-1.314;2023-02-23T11:00:29;100755.65;;;-1.83;100.00
36454;BME280;22478;51.740;-1.314;2023-02-23T11:02:57;100763.76;;;-1.49;100.00
36454;BME280;22478;51.740;-1.314;2023-02-23T11:05:32;100763.83;;;-1.05;100.00
36454;BME280;22478;51.740;-1.314;2023-02-23T11:08:10;100759.75;;;-2.12;100.00
36454;BME280;22478;51.740;-1.314;2023-02-23T11:10:38;100750.86;;;0.33;100.00
36454;BME280;22478;51.740;-1.314;2023-02-23T11:13:20;100756.36;;;-2.20;100.00
36454;BME280;22478;51.740;-1.314;2023-02-23T11:15:48;100762.12;;;-2.05;100.00
36454;BME280;22478;51.740;-1.314;2023-02-23T11:18:20;100765.52;;;-1.07;100.00
36454;BME280;22478;51.740;-1.314;2023-02-23T11:20:48;100768.23;;;-1.16;100.00
36454;BME280;22478;51.740;-1.314;2023-02-23T11:23:22;100770.89;;;-1.08;100.00
36454;BME280;22478;51.740;-1.314;2023-02-23T11:25:51;100766.99;;;-0.80;100.00
36454;BME280;22478;51.740;-1.314;2023-02-23T11:28:25;100767.43;;;-1.18;100.00
36454;BME280;22478;51.740;-1.314;2023-02-23T11:30:53;100776.47;;;-1.13;100.00
36454;BME280;22478;51.740;-1.314;2023-02-23T11:33:25;100765.50;;;-0.95;100.00
36454;BME280;22478;51.740;-1.314;2023-02-23T11:35:57;100772.13;;;-2.02;100.00
36454;BME280;22478;51.740;-1.314;2023-02-23T11:38:27;100773.41;;;-1.39;100.00
36454;BME280;22478;51.740;-1.314;2023-02-23T11:40:59;100774.21;;;-1.58;100.00
36454;BME280;22478;51.740;-1.314;2023-02-23T11:43:26;100776.68;;;-0.72;100.00
36454;BME280;22478;51.740;-1.314;2023-02-23T11:45:55;100775.62;;;-0.43;100.00
36454;BME280;22478;51.740;-1.314;2023-02-23T11:48:27;100773.85;;;-2.04;100.00
36454;BME280;22478;51.740;-1.314;2023-02-23T11:50:58;100767.52;;;-1.40;100.00
36454;BME280;22478;51.740;-1.314;2023-02-23T11:53:30;100768.58;;;-1.95;100.00
36454;BME280;22478;51.740;-1.314;2023-02-23T11:55:59;100771.24;;;-0.83;100.00
36454;BME280;22478;51.740;-1.314;2023-02-23T11:58:35;100772.26;;;-1.62;100.00
36454;BME280;22478;51.740;-1.314;2023-02-23T12:01:06;100776.31;;;-1.62;100.00
36454;BME280;22478;51.740;-1.314;2023-02-23T12:03:34;100767.10;;;-2.22;100.00
36454;BME280;22478;51.740;-1.314;2023-02-23T12:06:02;100776.91;;;-1.31;100.00
36454;BME280;22478;51.740;-1.314;2023-02-23T12:08:36;100769.10;;;-1.74;100.00
36454;BME280;22478;51.740;-1.314;2023-02-23T12:11:10;100755.62;;;0.83;100.00
36454;BME280;22478;51.740;-1.314;2023-02-23T12:13:43;100759.39;;;-1.02;100.00
36454;BME280;22478;51.740;-1.314;2023-02-23T12:16:15;100754.65;;;-0.44;100.00
36454;BME280;22478;51.740;-1.314;2023-02-23T12:18:47;100754.71;;;-0.71;100.00
36454;BME280;22478;51.740;-1.314;2023-02-23T12:21:23;100745.39;;;1.15;100.00
36454;BME280;22478;51.740;-1.314;2023-02-23T12:24:02;100750.23;;;0.10;100.00
36454;BME280;22478;51.740;-1.314;2023-02-23T12:26:34;100742.08;;;1.66;100.00
36454;BME280;22478;51.740;-1.314;2023-02-23T12:29:18;100753.41;;;-0.28;100.00
36454;BME280;22478;51.740;-1.314;2023-02-23T12:31:49;100753.82;;;-0.71;100.00
36454;BME280;22478;51.740;-1.314;2023-02-23T12:34:23;100755.58;;;-0.67;100.00
36454;BME280;22478;51.740;-1.314;2023-02-23T12:36:58;100758.13;;;-1.17;100.00
36454;BME280;22478;51.740;-1.314;2023-02-23T12:39:30;100758.25;;;-0.04;100.00
36454;BME280;22478;51.740;-1.314;2023-02-23T12:42:04;100756.62;;;-0.83;100.00
36454;BME280;22478;51.740;-1.314;2023-02-23T12:44:40;100752.64;;;-0.51;100.00